Time;durP1;ratioP1;P1;durP2;ratioP2;P2;SDS_P1;SDS_P2;PMS_P1;PMS_P2;Temp;Humidity;BMP_temperature;BMP_pressure;BME280_temperature;BME280_humidity;BME280_pressure;Samples;Min_cycle;Max_cycle;Signal;HPM_P1;HPM_P2
2021/01/06 00:00:42;;;;;;;;;;;7.10;68.60;;;;;;4990751;28;20247;-74
2021/01/06 00:03:18;;;;;;;2.10;1.15;;;7.10;68.20;;;;;;4991089;28;19909;-75
2021/01/06 00:05:45;;;;;;;2.80;1.05;;;7.10;68.30;;;;;;4988279;28;20034;-73
2021/01/06 00:08:11;;;;;;;3.33;1.63;;;7.10;68.40;;;;;;4985904;28;20037;-74
2021/01/06 00:10:36;;;;;;;3.03;2.05;;;7.00;68.40;;;;;;4991981;28;20042;-73
2021/01/06 00:13:02;;;;;;;2.88;1.77;;;7.10;68.50;;;;;;4990802;28;20084;-75
2021/01/06 00:15:32;;;;;;;2.17;1.48;;;7.10;68.60;;;;;;4988179;28;20479;-73
2021/01/06 00:17:58;;;;;;;2.15;1.58;;;7.10;68.60;;;;;;4991359;28;20089;-75
2021/01/06 00:20:25;;;;;;;1.58;1.15;;;7.00;68.50;;;;;;4990657;28;20479;-75
2021/01/06 00:22:51;;;;;;;1.20;0.90;;;7.10;68.60;;;;;;4982618;28;20058;-74
2021/01/06 00:25:27;;;;;;;1.40;0.80;;;7.10;68.60;;;;;;4990928;28;20039;-74
2021/01/06 00:27:53;;;;;;;1.88;1.15;;;7.00;68.60;;;;;;4984487;28;20040;-75
2021/01/06 00:30:25;;;;;;;1.33;1.08;;;7.00;68.50;;;;;;4985176;28;20054;-74
2021/01/06 00:32:51;;;;;;;2.03;1.05;;;7.00;68.40;;;;;;4989758;28;20049;-74
2021/01/06 00:35:18;;;;;;;0.80;0.70;;;7.00;68.40;;;;;;4990891;28;20042;-74
2021/01/06 00:37:43;;;;;;;1.30;1.15;;;7.00;68.50;;;;;;4982066;28;20058;-74
2021/01/06 00:40:10;;;;;;;2.13;1.30;;;7.10;68.50;;;;;;4981506;28;20072;-74
2021/01/06 00:42:36;;;;;;;1.45;1.10;;;7.00;68.40;;;;;;4982607;28;20041;-74
2021/01/06 00:45:05;;;;;;;1.40;1.05;;;7.00;68.40;;;;;;4983993;28;20452;-74
2021/01/06 00:47:30;;;;;;;1.23;1.10;;;7.10;68.40;;;;;;4982486;28;20035;-74
2021/01/06 00:49:56;;;;;;;2.30;1.27;;;7.00;68.40;;;;;;4985076;28;20101;-74
2021/01/06 00:52:22;;;;;;;3.63;1.00;;;7.00;68.30;;;;;;4980627;28;20064;-74
2021/01/06 00:54:48;;;;;;;1.67;1.17;;;6.90;68.30;;;;;;4984487;28;20036;-73
2021/01/06 00:57:14;;;;;;;1.27;0.90;;;6.90;68.20;;;;;;4983385;28;20117;-73
2021/01/06 00:59:39;;;;;;;1.52;0.93;;;6.90;68.20;;;;;;4983217;28;20046;-74
2021/01/06 01:02:05;;;;;;;1.58;1.00;;;6.90;68.20;;;;;;4981029;28;20066;-74
2021/01/06 01:04:30;;;;;;;1.65;1.08;;;6.90;68.20;;;;;;4980742;28;20035;-73
2021/01/06 01:06:56;;;;;;;2.33;0.90;;;6.90;68.20;;;;;;4980570;28;20117;-74
2021/01/06 01:09:21;;;;;;;1.02;0.93;;;6.80;68.20;;;;;;4979913;28;20034;-73
2021/01/06 01:11:47;;;;;;;1.58;1.05;;;6.80;68.10;;;;;;4981724;28;20045;-74
2021/01/06 01:14:12;;;;;;;1.63;0.95;;;6.80;68.10;;;;;;4980989;28;20454;-74
2021/01/06 01:16:46;;;;;;;1.38;1.00;;;6.90;68.30;;;;;;4980057;28;20035;-74
2021/01/06 01:19:11;;;;;;;2.28;1.40;;;6.80;68.20;;;;;;4981857;28;20038;-74
2021/01/06 01:21:37;;;;;;;1.30;0.80;;;6.70;68.20;;;;;;4979138;28;20027;-73
2021/01/06 01:24:04;;;;;;;2.20;1.10;;;6.80;68.40;;;;;;4981794;28;20022;-73
2021/01/06 01:26:29;;;;;;;1.35;0.95;;;6.70;68.30;;;;;;4981688;28;20527;-74
2021/01/06 01:28:55;;;;;;;1.65;0.93;;;6.70;68.30;;;;;;4981904;28;20042;-74
2021/01/06 01:31:20;;;;;;;1.48;1.05;;;6.70;68.40;;;;;;4981064;28;20145;-74
2021/01/06 01:33:46;;;;;;;1.27;0.88;;;6.70;68.40;;;;;;4979022;28;20030;-73
2021/01/06 01:36:12;;;;;;;1.20;0.85;;;6.70;68.40;;;;;;4978996;28;20034;-74
2021/01/06 01:38:38;;;;;;;1.25;0.90;;;6.60;68.40;;;;;;4980751;28;20403;-74
2021/01/06 01:41:11;;;;;;;2.75;1.38;;;6.70;68.50;;;;;;4980870;28;20023;-74
2021/01/06 01:43:37;;;;;;;2.15;1.30;;;6.60;68.40;;;;;;4979398;28;20031;-74
2021/01/06 01:46:03;;;;;;;1.75;1.13;;;6.60;68.40;;;;;;4982052;28;20040;-74
2021/01/06 01:48:40;;;;;;;1.83;1.23;;;6.60;68.30;;;;;;4982070;28;20117;-74
2021/01/06 01:51:30;;;;;;;3.25;1.77;;;6.70;68.40;;;;;;4982370;28;20042;-74
2021/01/06 01:54:16;;;;;;;1.15;1.00;;;6.70;68.40;;;;;;4966891;28;20034;-73
2021/01/06 01:56:45;;;;;;;1.38;1.02;;;6.60;68.30;;;;;;4987207;28;20377;-73
2021/01/06 01:59:20;;;;;;;1.25;0.90;;;6.60;68.40;;;;;;4961552;28;20031;-73
2021/01/06 02:01:49;;;;;;;1.90;1.45;;;6.60;68.50;;;;;;4986549;28;20035;-74
2021/01/06 02:04:41;;;;;;;1.92;1.52;;;6.60;68.50;;;;;;4987757;28;20134;-74
2021/01/06 02:07:14;;;;;;;1.42;1.08;;;6.60;68.50;;;;;;4966069;28;20491;-73
2021/01/06 02:10:06;;;;;;;1.42;1.15;;;6.60;68.50;;;;;;4987739;28;20037;-74
2021/01/06 02:12:54;;;;;;;1.15;1.00;;;6.60;68.40;;;;;;4986006;28;20058;-74
2021/01/06 02:15:43;;;;;;;1.23;1.02;;;6.70;68.50;;;;;;4975436;28;20817;-74
2021/01/06 02:18:10;;;;;;;1.88;1.35;;;6.70;68.40;;;;;;4981005;28;20065;-74
2021/01/06 02:20:36;;;;;;;2.42;1.70;;;6.60;68.50;;;;;;4984293;28;20038;-73
2021/01/06 02:23:02;;;;;;;2.00;1.30;;;6.60;68.50;;;;;;4980565;28;20107;-74
2021/01/06 02:25:29;;;;;;;1.70;1.30;;;6.60;68.50;;;;;;4986794;28;20041;-74
2021/01/06 02:27:56;;;;;;;2.17;1.50;;;6.60;68.50;;;;;;4987297;28;20721;-74
2021/01/06 02:30:23;;;;;;;1.30;1.00;;;6.60;69.10;;;;;;4984819;28;20038;-73
2021/01/06 02:32:50;;;;;;;1.80;1.40;;;6.60;68.60;;;;;;4987309;28;20495;-74
2021/01/06 02:35:17;;;;;;;1.40;1.02;;;6.60;68.60;;;;;;4987253;28;20062;-73
2021/01/06 02:37:43;;;;;;;2.25;1.15;;;6.60;68.60;;;;;;4979150;28;20510;-73
2021/01/06 02:40:10;;;;;;;2.13;1.23;;;6.60;68.60;;;;;;4986704;28;20097;-74
2021/01/06 02:42:37;;;;;;;1.35;1.08;;;6.60;68.70;;;;;;4986137;28;20026;-74
2021/01/06 02:45:14;;;;;;;1.70;1.20;;;6.70;68.70;;;;;;4985430;28;20038;-74
2021/01/06 02:47:41;;;;;;;1.40;1.00;;;6.70;68.60;;;;;;4985864;28;20092;-72
2021/01/06 02:50:10;;;;;;;1.67;1.48;;;6.70;68.60;;;;;;4990432;28;20488;-73
2021/01/06 02:52:49;;;;;;;2.90;1.55;;;6.60;68.60;;;;;;4982018;28;20034;-74
2021/01/06 02:55:15;;;;;;;1.33;0.98;;;6.60;68.50;;;;;;4990510;28;20046;-74
2021/01/06 02:57:43;;;;;;;1.70;0.95;;;6.70;68.60;;;;;;4990416;28;20043;-74
2021/01/06 03:00:11;;;;;;;1.90;1.27;;;6.40;68.40;;;;;;4982695;28;20034;-74
2021/01/06 03:02:37;;;;;;;1.63;1.23;;;6.70;68.60;;;;;;4989631;28;20030;-74
2021/01/06 03:05:02;;;;;;;1.85;1.55;;;6.60;68.50;;;;;;4972346;28;20085;-74
2021/01/06 03:07:28;;;;;;;1.73;1.42;;;6.80;68.60;;;;;;4981155;28;20408;-73
2021/01/06 03:09:54;;;;;;;2.00;1.20;;;6.70;68.50;;;;;;4991471;28;20034;-74
2021/01/06 03:12:29;;;;;;;2.35;1.00;;;6.70;68.50;;;;;;4990062;28;20040;-74
2021/01/06 03:14:54;;;;;;;2.22;1.33;;;6.70;68.50;;;;;;4987129;28;20049;-73
2021/01/06 03:17:20;;;;;;;1.60;1.38;;;6.70;68.50;;;;;;4989544;28;20455;-74
2021/01/06 03:19:50;;;;;;;2.13;1.58;;;6.60;68.40;;;;;;4990590;28;20034;-74
2021/01/06 03:22:20;;;;;;;1.42;1.25;;;6.70;68.50;;;;;;4982388;28;20125;-74
2021/01/06 03:25:05;;;;;;;2.38;1.63;;;6.60;68.40;;;;;;4989369;28;20034;-74
2021/01/06 03:27:33;;;;;;;1.98;1.20;;;6.60;68.30;;;;;;4988115;28;20039;-74
2021/01/06 03:29:59;;;;;;;1.48;1.38;;;6.60;68.30;;;;;;4984544;28;20495;-74
2021/01/06 03:32:58;;;;;;;2.08;1.50;;;6.70;68.40;;;;;;4989552;28;20038;-74
2021/01/06 03:35:29;;;;;;;2.20;1.80;;;6.60;68.30;;;;;;4977562;28;20038;-74
2021/01/06 03:38:01;;;;;;;1.10;1.00;;;6.60;68.30;;;;;;4987136;28;20034;-74
2021/01/06 03:40:32;;;;;;;1.40;1.10;;;6.60;68.40;;;;;;4988999;28;20085;-74
2021/01/06 03:42:58;;;;;;;2.00;1.40;;;6.60;68.40;;;;;;4989012;28;20027;-74
2021/01/06 03:45:26;;;;;;;1.50;1.02;;;6.60;68.40;;;;;;4986359;28;20185;-74
2021/01/06 03:48:12;;;;;;;2.00;1.42;;;6.60;68.40;;;;;;4986265;28;20054;-73
2021/01/06 03:50:42;;;;;;;1.65;1.30;;;6.50;68.30;;;;;;4987567;28;20058;-73
2021/01/06 03:53:24;;;;;;;1.90;1.30;;;6.50;68.30;;;;;;4982574;28;20069;-74
2021/01/06 03:55:53;;;;;;;2.13;1.42;;;6.50;68.20;;;;;;4987241;28;20117;-74
2021/01/06 03:58:40;;;;;;;1.60;1.30;;;6.50;68.30;;;;;;5011165;23;20053;-76
2021/01/06 04:01:17;;;;;;;1.23;1.00;;;6.60;68.20;;;;;;4999888;28;20030;-77
2021/01/06 04:03:55;;;;;;;1.73;1.38;;;6.50;68.30;;;;;;5006168;28;20045;-77
2021/01/06 04:06:24;;;;;;;2.35;1.52;;;6.50;68.30;;;;;;5002186;28;20038;-77
2021/01/06 04:08:53;;;;;;;1.55;1.33;;;6.50;68.30;;;;;;5003509;28;20109;-78
2021/01/06 04:11:26;;;;;;;2.10;1.48;;;6.50;68.30;;;;;;4999969;28;20119;-78
2021/01/06 04:13:52;;;;;;;2.10;1.30;;;6.50;68.30;;;;;;5006876;28;20117;-79
2021/01/06 04:16:17;;;;;;;1.85;1.42;;;6.50;68.40;;;;;;5007529;28;20125;-78
2021/01/06 04:18:44;;;;;;;3.38;1.23;;;6.50;68.40;;;;;;5001172;28;20495;-76
2021/01/06 04:21:10;;;;;;;3.45;1.42;;;6.50;68.40;;;;;;5001238;28;20039;-78
2021/01/06 04:23:35;;;;;;;1.40;1.10;;;6.50;68.40;;;;;;5005842;28;20030;-76
2021/01/06 04:26:01;;;;;;;2.88;1.30;;;6.40;68.40;;;;;;5007741;28;20044;-78
2021/01/06 04:28:29;;;;;;;1.95;1.42;;;6.40;68.30;;;;;;5007907;28;20077;-78
2021/01/06 04:31:00;;;;;;;1.42;1.02;;;6.50;68.40;;;;;;5000424;28;20125;-76
2021/01/06 04:33:34;;;;;;;1.80;1.20;;;6.50;68.30;;;;;;5002884;28;20045;-75
2021/01/06 04:36:03;;;;;;;4.85;1.20;;;6.50;68.30;;;;;;4997607;28;20046;-79
2021/01/06 04:38:32;;;;;;;2.40;1.33;;;6.50;68.40;;;;;;5004336;28;20444;-78
2021/01/06 04:41:04;;;;;;;1.63;1.15;;;6.50;68.40;;;;;;5007075;28;20040;-77
2021/01/06 04:43:33;;;;;;;1.38;1.02;;;6.50;68.40;;;;;;5007039;28;20096;-77
2021/01/06 04:46:23;;;;;;;1.73;1.30;;;6.40;68.40;;;;;;5005221;28;20062;-78
2021/01/06 04:49:30;;;;;;;1.67;1.13;;;6.40;68.30;;;;;;5005856;28;20040;-78
2021/01/06 04:52:35;;;;;;;1.30;0.98;;;6.40;68.10;;;;;;4997253;28;20053;-77
2021/01/06 04:55:37;;;;;;;1.75;1.10;;;6.40;68.10;;;;;;4998625;28;20038;-77
2021/01/06 04:58:19;;;;;;;0.80;0.80;;;6.40;68.10;;;;;;4998712;28;20100;-78
2021/01/06 05:00:47;;;;;;;2.85;1.30;;;6.30;68.20;;;;;;4997909;28;20698;-76
2021/01/06 05:03:37;;;;;;;1.73;1.10;;;6.50;68.30;;;;;;5009081;28;20038;-77
2021/01/06 05:06:18;;;;;;;1.65;1.13;;;6.40;68.30;;;;;;4994534;28;20542;-76
2021/01/06 05:08:52;;;;;;;1.15;0.88;;;6.40;68.20;;;;;;4994378;28;20084;-78
2021/01/06 05:11:49;;;;;;;2.05;1.10;;;6.40;68.30;;;;;;5005965;28;20034;-78
2021/01/06 05:14:21;;;;;;;2.05;1.10;;;6.40;68.20;;;;;;5006023;28;20026;-77
2021/01/06 05:16:49;;;;;;;1.17;0.80;;;6.30;68.30;;;;;;5004749;28;20509;-78
2021/01/06 05:19:25;;;;;;;2.13;1.10;;;6.40;68.40;;;;;;5006793;28;20026;-76
2021/01/06 05:21:52;;;;;;;1.75;0.80;;;6.30;68.30;;;;;;4994953;28;20037;-78
2021/01/06 05:24:21;;;;;;;1.02;0.93;;;6.30;68.30;;;;;;5007957;28;20037;-78
2021/01/06 05:26:52;;;;;;;1.75;1.23;;;6.30;68.30;;;;;;4979334;28;20034;-78
2021/01/06 05:29:27;;;;;;;1.00;0.80;;;6.30;68.30;;;;;;5006827;28;20033;-78
2021/01/06 05:31:53;;;;;;;1.27;0.90;;;6.30;68.20;;;;;;5000836;28;20037;-78
2021/01/06 05:34:18;;;;;;;1.35;0.95;;;6.30;68.30;;;;;;5006715;28;20034;-76
2021/01/06 05:36:45;;;;;;;0.90;0.80;;;6.30;68.30;;;;;;5004063;28;20518;-77
2021/01/06 05:39:24;;;;;;;2.15;0.70;;;6.30;68.30;;;;;;5006218;28;20080;-76
2021/01/06 05:42:04;;;;;;;2.03;1.05;;;6.30;68.10;;;;;;4995893;28;20033;-78
2021/01/06 05:44:31;;;;;;;0.90;0.80;;;6.30;68.20;;;;;;5001453;28;20495;-79
2021/01/06 05:46:57;;;;;;;1.33;0.90;;;6.30;68.20;;;;;;5005604;28;20103;-78
2021/01/06 05:49:27;;;;;;;1.00;0.90;;;6.30;68.20;;;;;;5008444;28;20026;-78
2021/01/06 05:52:00;;;;;;;1.15;0.80;;;6.30;68.20;;;;;;5001021;28;20057;-78
2021/01/06 05:54:40;;;;;;;0.90;0.70;;;6.30;68.10;;;;;;5008317;28;20034;-78
2021/01/06 05:57:27;;;;;;;1.25;0.68;;;6.30;68.30;;;;;;4999232;28;20050;-76
2021/01/06 06:00:19;;;;;;;0.98;0.82;;;6.30;68.10;;;;;;5000118;28;20068;-77
2021/01/06 06:03:21;;;;;;;1.33;0.68;;;6.30;68.00;;;;;;5006502;28;20060;-79
2021/01/06 06:06:04;;;;;;;1.55;1.17;;;6.30;68.20;;;;;;5003050;28;20026;-78
2021/01/06 06:09:00;;;;;;;0.93;0.70;;;6.30;68.00;;;;;;5003896;28;20034;-76
2021/01/06 06:12:06;;;;;;;0.88;0.60;;;6.30;68.00;;;;;;5001222;28;20037;-77
2021/01/06 06:14:53;;;;;;;1.58;1.08;;;6.30;67.90;;;;;;5001776;28;20118;-76
2021/01/06 06:17:51;;;;;;;2.03;0.95;;;6.30;68.20;;;;;;5001534;28;20045;-78
2021/01/06 06:20:38;;;;;;;2.03;0.90;;;6.30;67.80;;;;;;5001233;28;20041;-76
2021/01/06 06:23:27;;;;;;;1.60;1.02;;;6.30;67.90;;;;;;4998312;28;20606;-78
2021/01/06 06:26:01;;;;;;;1.70;0.90;;;6.30;67.90;;;;;;5019362;28;20046;-79
2021/01/06 06:28:53;;;;;;;1.17;1.00;;;6.30;67.90;;;;;;5006261;28;20033;-78
2021/01/06 06:31:28;;;;;;;0.85;0.70;;;6.30;67.90;;;;;;4993574;28;20411;-78
2021/01/06 06:33:59;;;;;;;1.02;0.80;;;6.30;68.10;;;;;;5004330;28;20029;-78
2021/01/06 06:36:28;;;;;;;1.65;1.00;;;6.30;68.00;;;;;;4998125;28;20177;-78
2021/01/06 06:38:55;;;;;;;1.17;0.80;;;6.30;68.10;;;;;;5003601;28;20030;-77
2021/01/06 06:41:31;;;;;;;0.80;0.75;;;6.30;68.00;;;;;;5005162;28;20034;-79
2021/01/06 06:44:28;;;;;;;0.98;0.80;;;6.30;67.90;;;;;;4998887;28;20037;-77
2021/01/06 06:47:07;;;;;;;2.13;0.80;;;6.30;67.60;;;;;;5000709;28;20033;-78
2021/01/06 06:50:01;;;;;;;1.63;0.88;;;6.30;67.90;;;;;;5005545;28;20037;-78
2021/01/06 06:52:37;;;;;;;1.00;0.90;;;6.30;67.50;;;;;;4988908;28;20041;-77
2021/01/06 06:55:33;;;;;;;1.10;0.80;;;6.30;67.70;;;;;;5003548;28;20033;-77
2021/01/06 06:58:26;;;;;;;1.08;0.70;;;6.30;67.60;;;;;;5004309;28;20077;-78
2021/01/06 07:00:52;;;;;;;1.35;0.88;;;6.30;67.50;;;;;;5004546;28;20392;-78
2021/01/06 07:03:24;;;;;;;1.00;0.70;;;6.20;67.80;;;;;;5005037;28;20042;-76
2021/01/06 07:05:55;;;;;;;1.20;0.77;;;6.30;67.70;;;;;;4999378;28;20034;-76
2021/01/06 07:08:28;;;;;;;1.30;1.02;;;6.30;67.70;;;;;;5006113;28;20034;-76
2021/01/06 07:11:33;;;;;;;1.15;0.90;;;6.20;67.60;;;;;;5004967;28;20030;-77
2021/01/06 07:14:03;;;;;;;1.33;0.90;;;6.20;67.30;;;;;;4994437;28;20040;-77
2021/01/06 07:16:40;;;;;;;1.67;1.13;;;6.20;67.70;;;;;;5004563;28;20084;-77
2021/01/06 07:19:24;;;;;;;1.30;1.02;;;6.20;67.70;;;;;;4999194;28;20532;-78
2021/01/06 07:22:01;;;;;;;1.60;1.08;;;6.20;67.60;;;;;;4996939;28;20073;-77
2021/01/06 07:24:27;;;;;;;1.38;0.70;;;6.30;67.80;;;;;;5006284;28;20037;-80
2021/01/06 07:26:58;;;;;;;1.45;1.00;;;6.20;67.80;;;;;;5006310;28;20028;-78
2021/01/06 07:29:30;;;;;;;2.72;1.27;;;6.20;67.80;;;;;;5002461;28;20041;-74
2021/01/06 07:32:09;;;;;;;1.30;0.82;;;6.20;67.80;;;;;;5006479;28;20029;-74
2021/01/06 07:34:40;;;;;;;1.42;1.10;;;6.20;67.70;;;;;;5005272;28;20103;-78
2021/01/06 07:37:25;;;;;;;0.63;0.63;;;6.20;67.60;;;;;;5001566;28;20038;-77
2021/01/06 07:40:00;;;;;;;2.15;1.02;;;6.20;67.60;;;;;;5007562;28;20121;-75
2021/01/06 07:42:43;;;;;;;1.10;0.70;;;6.10;67.40;;;;;;5008189;28;20026;-76
2021/01/06 07:45:20;;;;;;;1.17;1.00;;;6.10;67.40;;;;;;4998493;28;20499;-76
2021/01/06 07:48:05;;;;;;;2.67;1.30;;;6.20;67.60;;;;;;5005057;28;20064;-77
2021/01/06 07:50:34;;;;;;;1.15;0.98;;;6.10;67.30;;;;;;5005997;28;20406;-78
2021/01/06 07:53:06;;;;;;;0.77;0.70;;;6.10;67.70;;;;;;5004407;28;20022;-77
2021/01/06 07:55:52;;;;;;;2.13;1.40;;;6.10;67.80;;;;;;5006518;28;20041;-77
2021/01/06 07:58:27;;;;;;;1.40;1.30;;;6.10;67.80;;;;;;5004116;28;20113;-77
2021/01/06 08:00:55;;;;;;;1.60;1.48;;;6.10;67.80;;;;;;5006425;28;20030;-78
2021/01/06 08:03:29;;;;;;;2.42;1.75;;;6.10;67.80;;;;;;5007890;28;20034;-79
2021/01/06 08:06:00;;;;;;;1.38;1.05;;;6.10;67.80;;;;;;5002558;28;20038;-78
2021/01/06 08:08:40;;;;;;;1.40;0.93;;;6.20;67.80;;;;;;4999630;28;20037;-83
2021/01/06 08:11:07;;;;;;;1.35;1.08;;;6.20;67.80;;;;;;5028843;23;20053;-78
2021/01/06 08:13:38;;;;;;;1.08;0.80;;;6.20;67.70;;;;;;4997058;28;20030;-77
2021/01/06 08:16:21;;;;;;;1.42;0.85;;;6.10;67.60;;;;;;4994605;28;20072;-77
2021/01/06 08:19:23;;;;;;;1.17;0.80;;;6.10;67.40;;;;;;4996559;28;20040;-77
2021/01/06 08:22:01;;;;;;;1.45;1.17;;;6.10;67.00;;;;;;5010941;28;20041;-77
2021/01/06 08:24:48;;;;;;;1.30;1.20;;;6.20;67.20;;;;;;4996645;28;20026;-77
2021/01/06 08:27:25;;;;;;;1.65;1.20;;;6.20;67.00;;;;;;5000533;28;20064;-76
2021/01/06 08:30:07;;;;;;;1.70;1.25;;;6.10;67.30;;;;;;4999811;28;20065;-77
2021/01/06 08:32:33;;;;;;;1.52;1.17;;;6.20;67.40;;;;;;4998782;28;20113;-78
2021/01/06 08:35:03;;;;;;;1.90;1.20;;;6.10;67.30;;;;;;5001189;28;20087;-79
2021/01/06 08:37:34;;;;;;;1.15;1.00;;;6.10;67.30;;;;;;5009064;28;20054;-77
2021/01/06 08:40:02;;;;;;;0.80;0.80;;;6.10;67.30;;;;;;5006215;28;20033;-77
2021/01/06 08:42:42;;;;;;;1.20;0.95;;;6.10;67.50;;;;;;4999709;28;20084;-77
2021/01/06 08:45:22;;;;;;;1.47;1.10;;;6.10;67.30;;;;;;4998775;28;20038;-78
2021/01/06 08:47:48;;;;;;;1.57;1.47;;;6.10;67.80;;;;;;4997682;28;20276;-77
2021/01/06 08:50:26;;;;;;;3.03;1.38;;;6.10;67.40;;;;;;4997273;28;20638;-78
2021/01/06 08:52:55;;;;;;;1.88;1.10;;;6.10;67.50;;;;;;4995940;28;20034;-81
2021/01/06 08:55:31;;;;;;;1.40;1.13;;;6.10;67.50;;;;;;5000231;28;20978;-77
2021/01/06 08:58:08;;;;;;;1.95;1.00;;;6.10;67.50;;;;;;4994430;28;20065;-77
2021/01/06 09:00:36;;;;;;;1.40;1.00;;;6.10;67.40;;;;;;5009224;28;20137;-77
2021/01/06 09:03:09;;;;;;;1.80;1.30;;;6.10;67.50;;;;;;5021111;28;20033;-77
2021/01/06 09:05:51;;;;;;;1.98;1.17;;;6.10;67.40;;;;;;5020422;28;20033;-81
2021/01/06 09:08:37;;;;;;;1.75;1.27;;;6.10;67.40;;;;;;5017508;28;20087;-77
2021/01/06 09:11:23;;;;;;;1.90;1.00;;;6.10;67.30;;;;;;5016115;28;20048;-78
2021/01/06 09:14:09;;;;;;;2.22;0.90;;;6.10;67.40;;;;;;5016093;28;20387;-77
2021/01/06 09:16:47;;;;;;;1.20;1.10;;;6.10;67.40;;;;;;4994220;28;20038;-78
2021/01/06 09:19:25;;;;;;;1.67;1.05;;;6.10;67.40;;;;;;4998838;28;20137;-77
2021/01/06 09:21:51;;;;;;;2.22;1.42;;;6.10;67.40;;;;;;5000117;28;20655;-77
2021/01/06 09:24:32;;;;;;;1.73;1.42;;;6.10;67.50;;;;;;5007635;28;20068;-77
2021/01/06 09:27:05;;;;;;;2.72;1.77;;;6.10;67.40;;;;;;5003990;28;20549;-77
2021/01/06 09:29:35;;;;;;;2.17;1.38;;;6.10;67.40;;;;;;5004439;28;20121;-77
2021/01/06 09:32:08;;;;;;;2.17;1.27;;;6.10;67.40;;;;;;5010594;28;20036;-76
2021/01/06 09:34:38;;;;;;;2.30;1.40;;;6.10;67.40;;;;;;5004153;28;20048;-77
2021/01/06 09:37:05;;;;;;;1.67;1.20;;;6.20;67.50;;;;;;4999612;28;20052;-76
2021/01/06 09:39:33;;;;;;;1.88;1.30;;;6.10;67.40;;;;;;4998063;28;20432;-76
2021/01/06 09:42:00;;;;;;;1.70;0.93;;;6.10;67.50;;;;;;5003998;28;20022;-77
2021/01/06 09:44:29;;;;;;;2.03;1.52;;;6.10;67.60;;;;;;4994537;28;20030;-79
2021/01/06 09:47:39;;;;;;;2.42;1.23;;;6.10;67.60;;;;;;5000955;28;20045;-77
2021/01/06 09:50:26;;;;;;;1.85;1.13;;;6.10;67.40;;;;;;4980917;28;20030;-77
2021/01/06 09:52:53;;;;;;;1.70;1.20;;;6.10;67.40;;;;;;5000100;28;20161;-76
2021/01/06 09:55:22;;;;;;;1.42;1.20;;;6.10;67.60;;;;;;4997190;28;20088;-77
2021/01/06 09:58:13;;;;;;;1.67;1.30;;;6.00;67.70;;;;;;4994378;28;20049;-75
2021/01/06 10:00:50;;;;;;;1.67;1.17;;;6.10;67.80;;;;;;4989579;28;20038;-77
2021/01/06 10:03:16;;;;;;;1.58;1.23;;;6.10;67.70;;;;;;4986363;28;20049;-76
2021/01/06 10:05:50;;;;;;;2.28;1.23;;;6.20;67.90;;;;;;5008210;28;21009;-75
2021/01/06 10:08:26;;;;;;;1.67;1.20;;;6.10;67.80;;;;;;5005590;28;20057;-77
2021/01/06 10:10:58;;;;;;;1.65;1.50;;;6.10;67.80;;;;;;5005876;28;20056;-77
2021/01/06 10:13:27;;;;;;;1.65;1.48;;;6.10;67.80;;;;;;5010922;23;20121;-74
2021/01/06 10:16:04;;;;;;;2.03;1.40;;;6.10;67.70;;;;;;4973222;28;20026;-73
2021/01/06 10:18:38;;;;;;;2.25;1.23;;;6.10;67.60;;;;;;4990460;28;20031;-75
2021/01/06 10:21:34;;;;;;;1.15;1.05;;;6.30;67.70;;;;;;4996551;28;20037;-75
2021/01/06 10:24:27;;;;;;;2.22;1.60;;;6.10;67.50;;;;;;4952689;28;20083;-73
2021/01/06 10:27:20;;;;;;;2.00;1.70;;;6.10;67.50;;;;;;4946212;28;20058;-74
2021/01/06 10:29:49;;;;;;;1.50;1.27;;;6.10;67.50;;;;;;4952574;28;20562;-76
2021/01/06 10:32:14;;;;;;;1.48;1.38;;;6.10;67.60;;;;;;4931914;28;20101;-76
2021/01/06 10:34:48;;;;;;;1.55;1.40;;;6.00;68.20;;;;;;4952435;28;20096;-76
2021/01/06 10:37:29;;;;;;;2.20;1.60;;;6.00;67.80;;;;;;4961180;28;20038;-76
2021/01/06 10:40:11;;;;;;;1.83;1.50;;;6.00;68.00;;;;;;4956459;28;20027;-75
2021/01/06 10:42:37;;;;;;;1.90;1.63;;;6.00;68.00;;;;;;4962264;28;20054;-76
2021/01/06 10:45:36;;;;;;;2.10;1.38;;;6.10;68.20;;;;;;4959437;28;20407;-75
2021/01/06 10:48:03;;;;;;;2.25;1.85;;;6.00;68.50;;;;;;4943782;28;20035;-75
2021/01/06 10:50:31;;;;;;;2.08;1.70;;;6.00;68.30;;;;;;4949354;28;20058;-76
2021/01/06 10:53:13;;;;;;;2.17;1.98;;;6.10;68.50;;;;;;4956871;28;20118;-76
2021/01/06 10:56:04;;;;;;;2.35;1.70;;;6.10;68.60;;;;;;4959733;28;20035;-77
2021/01/06 10:58:44;;;;;;;2.03;1.77;;;6.10;68.60;;;;;;4955010;28;20031;-76
2021/01/06 11:01:09;;;;;;;1.83;1.55;;;6.10;68.70;;;;;;4957142;28;20063;-76
2021/01/06 11:04:06;;;;;;;2.17;1.70;;;6.10;68.70;;;;;;4963800;28;20058;-76
2021/01/06 11:07:07;;;;;;;2.72;1.98;;;6.10;69.00;;;;;;4945266;28;20516;-76
2021/01/06 11:09:40;;;;;;;2.13;1.48;;;6.10;69.00;;;;;;4936866;28;20116;-76
2021/01/06 11:12:24;;;;;;;2.13;1.83;;;6.20;69.00;;;;;;4952450;28;20047;-75
2021/01/06 11:15:10;;;;;;;2.40;2.03;;;6.20;69.00;;;;;;4961586;28;20037;-71
2021/01/06 11:17:39;;;;;;;2.90;2.05;;;6.30;68.90;;;;;;4959566;28;20031;-73
2021/01/06 11:20:29;;;;;;;2.22;1.80;;;6.30;68.80;;;;;;4957776;28;20046;-71
2021/01/06 11:23:35;;;;;;;2.28;1.88;;;6.30;68.90;;;;;;4964912;28;20393;-73
2021/01/06 11:26:30;;;;;;;2.92;2.20;;;6.40;68.90;;;;;;4958226;28;20027;-76
2021/01/06 11:29:10;;;;;;;2.95;1.88;;;6.40;68.80;;;;;;4955697;28;20062;-73
2021/01/06 11:31:38;;;;;;;2.13;1.90;;;6.50;68.70;;;;;;4965256;28;20031;-76
2021/01/06 11:34:10;;;;;;;2.90;2.38;;;6.50;68.60;;;;;;4968865;28;20035;-76
2021/01/06 11:36:46;;;;;;;2.63;2.13;;;6.50;68.70;;;;;;4964044;28;20158;-76
2021/01/06 11:39:35;;;;;;;2.10;1.77;;;6.50;68.60;;;;;;4965256;28;20126;-75
2021/01/06 11:42:13;;;;;;;2.22;1.90;;;6.50;68.50;;;;;;4964611;28;20035;-76
2021/01/06 11:44:48;;;;;;;2.65;2.45;;;6.50;68.40;;;;;;4953627;28;20032;-76
2021/01/06 11:47:56;;;;;;;2.22;2.03;;;6.50;68.90;;;;;;4957730;28;20138;-77
2021/01/06 11:50:24;;;;;;;2.03;1.80;;;6.50;68.30;;;;;;4969352;28;20560;-77
2021/01/06 11:52:51;;;;;;;2.03;1.63;;;6.50;68.30;;;;;;4966664;28;20027;-76
2021/01/06 11:55:19;;;;;;;2.55;1.65;;;6.60;68.40;;;;;;4966234;28;20038;-77
2021/01/06 11:58:20;;;;;;;2.08;1.80;;;6.50;68.40;;;;;;4976582;28;20023;-75
2021/01/06 12:01:15;;;;;;;2.10;1.55;;;6.50;68.40;;;;;;4955791;28;20216;-74
2021/01/06 12:04:13;;;;;;;2.45;1.60;;;6.50;68.30;;;;;;4968586;28;20046;-73
2021/01/06 12:07:20;;;;;;;3.58;2.97;;;6.50;68.30;;;;;;4962309;28;20424;-76
2021/01/06 12:10:06;;;;;;;2.58;1.80;;;6.50;68.30;;;;;;4926928;28;20043;-76
2021/01/06 12:12:56;;;;;;;2.95;2.60;;;6.60;68.30;;;;;;4945447;28;20043;-75
2021/01/06 12:15:46;;;;;;;1.83;1.60;;;6.60;68.30;;;;;;4959541;28;20524;-76
2021/01/06 12:18:31;;;;;;;1.90;1.73;;;6.50;68.30;;;;;;4963678;28;20500;-75
2021/01/06 12:20:59;;;;;;;3.08;2.28;;;6.50;68.30;;;;;;4973686;28;20031;-75
2021/01/06 12:23:40;;;;;;;2.58;1.88;;;6.50;68.20;;;;;;4966460;28;20039;-75
2021/01/06 12:26:38;;;;;;;2.00;1.80;;;6.50;68.10;;;;;;4965765;28;20411;-75
2021/01/06 12:29:07;;;;;;;2.05;1.80;;;6.50;68.10;;;;;;4969590;28;20031;-75
2021/01/06 12:31:55;;;;;;;2.65;2.15;;;6.50;68.00;;;;;;4969232;28;20039;-75
2021/01/06 12:34:37;;;;;;;2.65;2.13;;;6.50;68.10;;;;;;4969002;28;20050;-74
2021/01/06 12:37:11;;;;;;;2.03;1.83;;;6.50;68.10;;;;;;4966417;28;20044;-76
2021/01/06 12:39:44;;;;;;;2.40;2.20;;;6.40;68.20;;;;;;4971382;28;20572;-75
2021/01/06 12:42:40;;;;;;;2.33;1.80;;;6.40;68.20;;;;;;4973302;28;20446;-77
2021/01/06 12:45:11;;;;;;;2.03;1.60;;;6.40;68.30;;;;;;4968210;28;20069;-78
2021/01/06 12:48:08;;;;;;;1.52;1.42;;;6.30;68.20;;;;;;4968405;28;20110;-77
2021/01/06 12:51:08;;;;;;;2.50;1.70;;;6.30;68.50;;;;;;4971146;28;20026;-76
2021/01/06 12:53:40;;;;;;;2.03;1.70;;;6.30;68.60;;;;;;4965086;28;20392;-77
2021/01/06 12:56:22;;;;;;;2.47;1.77;;;6.30;68.60;;;;;;4953450;28;20743;-76
2021/01/06 12:59:05;;;;;;;3.75;2.05;;;6.30;68.60;;;;;;4968250;28;20035;-75
2021/01/06 13:02:01;;;;;;;2.45;2.25;;;6.30;68.70;;;;;;4952738;28;20046;-75
2021/01/06 13:04:38;;;;;;;2.63;2.05;;;6.30;68.70;;;;;;4964020;28;20404;-75
2021/01/06 13:07:12;;;;;;;2.30;1.85;;;6.30;68.60;;;;;;4955475;28;20041;-75
2021/01/06 13:09:48;;;;;;;2.22;2.03;;;6.30;68.80;;;;;;4966738;28;20027;-76
2021/01/06 13:12:13;;;;;;;2.65;1.95;;;6.30;68.70;;;;;;4978973;28;20455;-75
2021/01/06 13:14:48;;;;;;;1.95;1.70;;;6.30;68.70;;;;;;4962831;28;20046;-75
2021/01/06 13:17:13;;;;;;;1.85;1.48;;;6.30;68.80;;;;;;4952993;28;20034;-72
2021/01/06 13:20:14;;;;;;;1.90;1.70;;;6.30;68.70;;;;;;4963628;28;20027;-74
2021/01/06 13:22:42;;;;;;;4.40;2.78;;;6.30;68.90;;;;;;4958002;28;20512;-75
2021/01/06 13:25:18;;;;;;;2.13;1.50;;;6.30;68.70;;;;;;4956434;28;20035;-74
2021/01/06 13:27:52;;;;;;;1.67;1.58;;;6.30;68.70;;;;;;4972295;28;20031;-75
2021/01/06 13:30:30;;;;;;;2.05;1.85;;;6.30;68.70;;;;;;4962809;28;20583;-74
2021/01/06 13:33:11;;;;;;;2.05;1.40;;;6.30;68.60;;;;;;4959647;28;20070;-74
2021/01/06 13:36:02;;;;;;;;;;;6.30;68.60;;;;;;4966577;28;20030;-72
2021/01/06 13:38:39;;;;;;;1.88;1.40;;;6.30;68.70;;;;;;4961234;28;19933;-74
2021/01/06 13:41:22;;;;;;;1.13;1.02;;;6.30;68.40;;;;;;4953433;28;20031;-74
2021/01/06 13:43:57;;;;;;;1.20;1.10;;;6.20;68.50;;;;;;4962377;28;20050;-74